sensor_id;sensor_type;location;lat;lon;timestamp;pressure;altitude;pressure_sealevel;temperature;humidity
46379;BME280;32084;42.254;22.744;2023-07-29T00:00:03;95069.72;;;16.66;70.72
46379;BME280;32084;42.254;22.744;2023-07-29T00:02:30;95075.94;;;16.66;71.28
46379;BME280;32084;42.254;22.744;2023-07-29T00:04:58;95068.22;;;16.63;71.51
46379;BME280;32084;42.254;22.744;2023-07-29T00:07:24;95064.47;;;16.57;71.36
46379;BME280;32084;42.254;22.744;2023-07-29T00:09:49;95070.91;;;16.56;72.25
46379;BME280;32084;42.254;22.744;2023-07-29T00:12:15;95062.88;;;16.35;72.77
46379;BME280;32084;42.254;22.744;2023-07-29T00:14:42;95072.09;;;16.12;73.25
46379;BME280;32084;42.254;22.744;2023-07-29T00:17:07;95072.13;;;16.19;73.48
46379;BME280;32084;42.254;22.744;2023-07-29T00:19:33;95066.38;;;16.29;72.32
46379;BME280;32084;42.254;22.744;2023-07-29T00:22:00;95068.56;;;16.12;73.14
46379;BME280;32084;42.254;22.744;2023-07-29T00:24:26;95078.50;;;15.76;74.76
46379;BME280;32084;42.254;22.744;2023-07-29T00:26:52;95072.63;;;15.51;75.96
46379;BME280;32084;42.254;22.744;2023-07-29T00:29:17;95070.06;;;15.43;76.18
46379;BME280;32084;42.254;22.744;2023-07-29T00:31:43;95067.78;;;15.68;75.32
46379;BME280;32084;42.254;22.744;2023-07-29T00:34:09;95069.53;;;15.97;73.67
46379;BME280;32084;42.254;22.744;2023-07-29T00:36:35;95063.75;;;16.35;72.00
46379;BME280;32084;42.254;22.744;2023-07-29T00:39:01;95064.38;;;16.37;71.82
46379;BME280;32084;42.254;22.744;2023-07-29T00:41:27;95067.09;;;16.09;73.17
46379;BME280;32084;42.254;22.744;2023-07-29T00:43:53;95064.41;;;15.81;74.18
46379;BME280;32084;42.254;22.744;2023-07-29T00:46:19;95062.72;;;15.80;75.11
46379;BME280;32084;42.254;22.744;2023-07-29T00:48:45;95049.94;;;16.24;72.76
46379;BME280;32084;42.254;22.744;2023-07-29T00:51:11;95053.44;;;16.17;73.07
46379;BME280;32084;42.254;22.744;2023-07-29T00:53:37;95060.25;;;15.78;74.34
46379;BME280;32084;42.254;22.744;2023-07-29T00:56:03;95058.06;;;15.46;76.33
46379;BME280;32084;42.254;22.744;2023-07-29T00:58:30;95054.22;;;15.55;76.13
46379;BME280;32084;42.254;22.744;2023-07-29T01:00:56;95052.75;;;15.74;74.93
46379;BME280;32084;42.254;22.744;2023-07-29T01:03:22;95052.84;;;15.87;74.30
46379;BME280;32084;42.254;22.744;2023-07-29T01:10:48;95054.06;;;15.85;73.69
46379;BME280;32084;42.254;22.744;2023-07-29T01:14:04;95052.81;;;15.80;74.68
46379;BME280;32084;42.254;22.744;2023-07-29T01:16:04;95049.94;;;15.89;74.21
46379;BME280;32084;42.254;22.744;2023-07-29T01:18:33;95055.09;;;15.84;74.94
46379;BME280;32084;42.254;22.744;2023-07-29T01:21:04;95053.75;;;15.73;74.79
46379;BME280;32084;42.254;22.744;2023-07-29T01:23:36;95054.41;;;15.53;76.41
46379;BME280;32084;42.254;22.744;2023-07-29T01:26:02;95048.44;;;15.79;74.68
46379;BME280;32084;42.254;22.744;2023-07-29T01:28:28;95050.16;;;15.66;75.27
46379;BME280;32084;42.254;22.744;2023-07-29T01:30:57;95053.03;;;15.64;75.59
46379;BME280;32084;42.254;22.744;2023-07-29T01:33:26;95057.66;;;15.70;75.35
46379;BME280;32084;42.254;22.744;2023-07-29T01:36:01;95059.81;;;15.75;75.07
46379;BME280;32084;42.254;22.744;2023-07-29T01:38:29;95051.47;;;15.48;75.72
46379;BME280;32084;42.254;22.744;2023-07-29T01:41:00;95066.53;;;15.21;77.42
46379;BME280;32084;42.254;22.744;2023-07-29T01:43:30;95056.97;;;15.18;77.39
46379;BME280;32084;42.254;22.744;2023-07-29T01:45:56;95053.84;;;15.58;75.71
46379;BME280;32084;42.254;22.744;2023-07-29T01:48:22;95048.28;;;15.66;75.37
46379;BME280;32084;42.254;22.744;2023-07-29T01:50:48;95053.41;;;15.61;75.01
46379;BME280;32084;42.254;22.744;2023-07-29T01:53:14;95051.06;;;15.51;75.80
46379;BME280;32084;42.254;22.744;2023-07-29T01:55:42;95053.59;;;15.31;76.54
46379;BME280;32084;42.254;22.744;2023-07-29T01:58:10;95053.25;;;15.19;76.89
46379;BME280;32084;42.254;22.744;2023-07-29T02:00:36;95049.09;;;15.17;76.88
46379;BME280;32084;42.254;22.744;2023-07-29T02:03:02;95058.41;;;15.36;76.41
46379;BME280;32084;42.254;22.744;2023-07-29T02:05:28;95049.94;;;15.39;76.40
46379;BME280;32084;42.254;22.744;2023-07-29T02:07:54;95051.72;;;15.32;76.35
46379;BME280;32084;42.254;22.744;2023-07-29T02:10:20;95059.44;;;15.35;76.76
46379;BME280;32084;42.254;22.744;2023-07-29T02:12:46;95053.78;;;15.30;76.83
46379;BME280;32084;42.254;22.744;2023-07-29T02:15:12;95052.63;;;15.17;77.31
46379;BME280;32084;42.254;22.744;2023-07-29T02:17:39;95057.25;;;15.23;77.29
46379;BME280;32084;42.254;22.744;2023-07-29T02:20:05;95054.09;;;15.41;76.27
46379;BME280;32084;42.254;22.744;2023-07-29T02:22:31;95051.22;;;15.43;75.54
46379;BME280;32084;42.254;22.744;2023-07-29T02:24:57;95052.81;;;15.37;76.47
46379;BME280;32084;42.254;22.744;2023-07-29T02:27:23;95058.25;;;15.22;77.48
46379;BME280;32084;42.254;22.744;2023-07-29T02:29:52;95051.97;;;15.15;77.63
46379;BME280;32084;42.254;22.744;2023-07-29T02:32:19;95057.63;;;15.20;77.19
46379;BME280;32084;42.254;22.744;2023-07-29T02:34:45;95059.47;;;15.41;76.44
46379;BME280;32084;42.254;22.744;2023-07-29T02:37:10;95063.63;;;15.44;76.08
46379;BME280;32084;42.254;22.744;2023-07-29T02:39:36;95064.19;;;15.33;77.17
46379;BME280;32084;42.254;22.744;2023-07-29T02:42:03;95066.72;;;15.19;77.11
46379;BME280;32084;42.254;22.744;2023-07-29T02:44:29;95060.31;;;14.99;78.44
46379;BME280;32084;42.254;22.744;2023-07-29T02:46:55;95067.94;;;15.17;77.81
46379;BME280;32084;42.254;22.744;2023-07-29T02:49:22;95066.00;;;14.89;78.56
46379;BME280;32084;42.254;22.744;2023-07-29T02:51:49;95064.31;;;14.88;79.05
46379;BME280;32084;42.254;22.744;2023-07-29T02:54:15;95069.34;;;14.91;79.39
46379;BME280;32084;42.254;22.744;2023-07-29T02:56:41;95065.09;;;14.82;78.97
46379;BME280;32084;42.254;22.744;2023-07-29T02:59:07;95068.34;;;14.77;79.45
46379;BME280;32084;42.254;22.744;2023-07-29T03:01:33;95064.31;;;14.88;79.31
46379;BME280;32084;42.254;22.744;2023-07-29T03:03:59;95071.00;;;14.92;78.86
46379;BME280;32084;42.254;22.744;2023-07-29T03:06:25;95073.81;;;14.84;78.91
46379;BME280;32084;42.254;22.744;2023-07-29T03:08:51;95077.91;;;14.80;79.17
46379;BME280;32084;42.254;22.744;2023-07-29T03:11:17;95079.84;;;14.86;78.97
46379;BME280;32084;42.254;22.744;2023-07-29T03:13:43;95080.44;;;14.67;79.77
46379;BME280;32084;42.254;22.744;2023-07-29T03:16:09;95079.22;;;14.69;79.73
46379;BME280;32084;42.254;22.744;2023-07-29T03:18:36;95072.38;;;14.67;79.80
46379;BME280;32084;42.254;22.744;2023-07-29T03:21:02;95072.97;;;14.83;79.17
46379;BME280;32084;42.254;22.744;2023-07-29T03:23:29;95074.63;;;14.84;79.35
46379;BME280;32084;42.254;22.744;2023-07-29T03:25:56;95076.53;;;14.69;79.62
46379;BME280;32084;42.254;22.744;2023-07-29T03:28:30;95071.78;;;14.56;80.32
46379;BME280;32084;42.254;22.744;2023-07-29T03:30:56;95082.09;;;14.68;80.06
46379;BME280;32084;42.254;22.744;2023-07-29T03:33:22;95083.81;;;14.90;79.24
46379;BME280;32084;42.254;22.744;2023-07-29T03:35:48;95088.88;;;15.00;78.50
46379;BME280;32084;42.254;22.744;2023-07-29T03:38:14;95092.75;;;15.12;77.72
46379;BME280;32084;42.254;22.744;2023-07-29T03:40:41;95091.88;;;14.90;78.92
46379;BME280;32084;42.254;22.744;2023-07-29T03:43:07;95087.47;;;14.68;79.77
46379;BME280;32084;42.254;22.744;2023-07-29T03:45:33;95086.47;;;14.69;79.67
46379;BME280;32084;42.254;22.744;2023-07-29T03:48:00;95086.47;;;15.05;77.79
46379;BME280;32084;42.254;22.744;2023-07-29T03:50:26;95086.47;;;15.05;78.08
46379;BME280;32084;42.254;22.744;2023-07-29T03:52:52;95091.91;;;15.12;78.27
46379;BME280;32084;42.254;22.744;2023-07-29T03:55:18;95078.34;;;15.41;76.84
46379;BME280;32084;42.254;22.744;2023-07-29T03:57:44;95080.50;;;15.53;76.74
46379;BME280;32084;42.254;22.744;2023-07-29T04:00:10;95086.41;;;15.41;77.76
46379;BME280;32084;42.254;22.744;2023-07-29T04:02:36;95083.28;;;15.59;76.62
46379;BME280;32084;42.254;22.744;2023-07-29T04:05:03;95076.28;;;15.65;77.39
46379;BME280;32084;42.254;22.744;2023-07-29T04:07:30;95087.22;;;15.78;77.21
46379;BME280;32084;42.254;22.744;2023-07-29T04:09:56;95091.66;;;16.21;74.30
46379;BME280;32084;42.254;22.744;2023-07-29T04:12:22;95086.41;;;16.41;73.88
46379;BME280;32084;42.254;22.744;2023-07-29T04:14:49;95097.75;;;16.30;76.04
46379;BME280;32084;42.254;22.744;2023-07-29T04:17:15;95097.31;;;16.26;75.99
46379;BME280;32084;42.254;22.744;2023-07-29T04:19:40;95101.72;;;16.34;75.74
46379;BME280;32084;42.254;22.744;2023-07-29T04:22:06;95101.91;;;16.32;76.57
46379;BME280;32084;42.254;22.744;2023-07-29T04:24:32;95093.50;;;16.55;75.72
46379;BME280;32084;42.254;22.744;2023-07-29T04:26:58;95094.91;;;16.45;77.19
46379;BME280;32084;42.254;22.744;2023-07-29T04:29:24;95096.69;;;16.66;75.32
46379;BME280;32084;42.254;22.744;2023-07-29T04:31:50;95096.09;;;16.70;75.82
46379;BME280;32084;42.254;22.744;2023-07-29T04:34:17;95096.22;;;16.97;74.23
46379;BME280;32084;42.254;22.744;2023-07-29T04:36:43;95102.06;;;17.07;74.92
46379;BME280;32084;42.254;22.744;2023-07-29T04:39:09;95104.63;;;17.22;74.72
46379;BME280;32084;42.254;22.744;2023-07-29T04:41:35;95106.94;;;17.39;73.52
46379;BME280;32084;42.254;22.744;2023-07-29T04:44:01;95104.06;;;17.47;76.05
46379;BME280;32084;42.254;22.744;2023-07-29T04:46:27;95103.25;;;17.53;73.58
46379;BME280;32084;42.254;22.744;2023-07-29T04:48:53;95103.06;;;17.74;73.25
46379;BME280;32084;42.254;22.744;2023-07-29T04:51:19;95104.34;;;17.92;73.49
46379;BME280;32084;42.254;22.744;2023-07-29T04:53:45;95112.25;;;18.07;73.25
46379;BME280;32084;42.254;22.744;2023-07-29T04:56:11;95110.59;;;18.12;72.45
46379;BME280;32084;42.254;22.744;2023-07-29T04:58:37;95117.44;;;18.28;69.21
46379;BME280;32084;42.254;22.744;2023-07-29T05:01:03;95119.28;;;18.61;67.19
46379;BME280;32084;42.254;22.744;2023-07-29T05:03:30;95113.16;;;18.92;68.21
46379;BME280;32084;42.254;22.744;2023-07-29T05:05:56;95110.59;;;19.11;68.00
46379;BME280;32084;42.254;22.744;2023-07-29T05:08:22;95111.50;;;19.37;65.00
46379;BME280;32084;42.254;22.744;2023-07-29T05:10:49;95108.78;;;19.37;65.34
46379;BME280;32084;42.254;22.744;2023-07-29T05:13:15;95115.00;;;19.44;65.11
46379;BME280;32084;42.254;22.744;2023-07-29T05:15:41;95121.56;;;19.29;65.72
46379;BME280;32084;42.254;22.744;2023-07-29T05:18:07;95118.09;;;19.54;65.54
46379;BME280;32084;42.254;22.744;2023-07-29T05:20:33;95122.56;;;19.67;64.03
46379;BME280;32084;42.254;22.744;2023-07-29T05:22:59;95123.59;;;19.79;63.84
46379;BME280;32084;42.254;22.744;2023-07-29T05:25:26;95139.03;;;19.79;64.82
46379;BME280;32084;42.254;22.744;2023-07-29T05:27:52;95128.34;;;19.84;63.04
46379;BME280;32084;42.254;22.744;2023-07-29T05:30:18;95131.66;;;19.86;62.87
46379;BME280;32084;42.254;22.744;2023-07-29T05:32:44;95131.19;;;19.96;62.23
46379;BME280;32084;42.254;22.744;2023-07-29T05:35:10;95136.53;;;20.09;62.52
46379;BME280;32084;42.254;22.744;2023-07-29T05:37:39;95130.53;;;20.25;61.11
46379;BME280;32084;42.254;22.744;2023-07-29T05:40:06;95129.81;;;20.37;62.18
46379;BME280;32084;42.254;22.744;2023-07-29T05:42:32;95132.03;;;20.21;62.82
46379;BME280;32084;42.254;22.744;2023-07-29T05:44:58;95131.59;;;20.24;62.52
46379;BME280;32084;42.254;22.744;2023-07-29T05:47:24;95132.47;;;20.43;62.02
46379;BME280;32084;42.254;22.744;2023-07-29T05:49:50;95133.28;;;20.44;62.52
46379;BME280;32084;42.254;22.744;2023-07-29T05:52:16;95136.41;;;20.47;62.90
46379;BME280;32084;42.254;22.744;2023-07-29T05:54:42;95133.38;;;20.56;62.70
46379;BME280;32084;42.254;22.744;2023-07-29T05:57:09;95127.47;;;20.65;61.44
46379;BME280;32084;42.254;22.744;2023-07-29T05:59:35;95139.19;;;20.84;61.94
46379;BME280;32084;42.254;22.744;2023-07-29T06:02:01;95133.47;;;20.93;61.55
46379;BME280;32084;42.254;22.744;2023-07-29T06:04:27;95130.97;;;21.10;61.91
46379;BME280;32084;42.254;22.744;2023-07-29T06:06:53;95137.53;;;21.20;60.92
46379;BME280;32084;42.254;22.744;2023-07-29T06:09:21;95134.25;;;21.30;59.37
46379;BME280;32084;42.254;22.744;2023-07-29T06:11:47;95124.59;;;21.53;60.39
46379;BME280;32084;42.254;22.744;2023-07-29T06:14:13;95121.97;;;21.76;60.19
46379;BME280;32084;42.254;22.744;2023-07-29T06:16:39;95125.25;;;22.09;60.43
46379;BME280;32084;42.254;22.744;2023-07-29T06:19:05;95122.72;;;22.37;58.85
46379;BME280;32084;42.254;22.744;2023-07-29T06:21:31;95116.66;;;22.47;57.15
46379;BME280;32084;42.254;22.744;2023-07-29T06:23:57;95114.16;;;22.57;58.30
46379;BME280;32084;42.254;22.744;2023-07-29T06:26:23;95108.50;;;22.59;57.95
46379;BME280;32084;42.254;22.744;2023-07-29T06:28:49;95107.38;;;22.95;56.78
46379;BME280;32084;42.254;22.744;2023-07-29T06:31:15;95115.34;;;23.09;55.67
46379;BME280;32084;42.254;22.744;2023-07-29T06:33:41;95107.50;;;23.24;55.73
46379;BME280;32084;42.254;22.744;2023-07-29T06:36:07;95105.78;;;23.35;54.36
46379;BME280;32084;42.254;22.744;2023-07-29T06:38:33;95096.97;;;23.45;55.81
46379;BME280;32084;42.254;22.744;2023-07-29T06:40:59;95096.25;;;23.49;54.79
46379;BME280;32084;42.254;22.744;2023-07-29T06:43:25;95092.13;;;23.64;55.44
46379;BME280;32084;42.254;22.744;2023-07-29T06:45:50;95090.50;;;23.63;53.54
46379;BME280;32084;42.254;22.744;2023-07-29T06:48:17;95096.72;;;23.75;54.78
46379;BME280;32084;42.254;22.744;2023-07-29T06:50:44;95092.22;;;23.97;53.90
46379;BME280;32084;42.254;22.744;2023-07-29T06:53:10;95086.38;;;23.89;53.99
46379;BME280;32084;42.254;22.744;2023-07-29T06:55:36;95086.28;;;24.01;54.05
46379;BME280;32084;42.254;22.744;2023-07-29T06:58:02;95093.00;;;24.10;53.35
46379;BME280;32084;42.254;22.744;2023-07-29T07:00:28;95091.19;;;24.15;52.73
46379;BME280;32084;42.254;22.744;2023-07-29T07:02:54;95089.19;;;24.45;52.51
46379;BME280;32084;42.254;22.744;2023-07-29T07:05:20;95097.97;;;24.47;52.19
46379;BME280;32084;42.254;22.744;2023-07-29T07:07:46;95095.78;;;24.49;52.31
46379;BME280;32084;42.254;22.744;2023-07-29T07:10:12;95093.19;;;24.54;52.50
46379;BME280;32084;42.254;22.744;2023-07-29T07:12:38;95082.09;;;24.83;52.79
46379;BME280;32084;42.254;22.744;2023-07-29T07:15:04;95086.97;;;24.98;52.56
46379;BME280;32084;42.254;22.744;2023-07-29T07:17:30;95083.25;;;25.26;50.93
46379;BME280;32084;42.254;22.744;2023-07-29T07:19:56;95080.53;;;25.26;52.04
46379;BME280;32084;42.254;22.744;2023-07-29T07:22:22;95084.66;;;25.28;50.34
46379;BME280;32084;42.254;22.744;2023-07-29T07:24:48;95077.06;;;25.36;50.68
46379;BME280;32084;42.254;22.744;2023-07-29T07:27:13;95082.41;;;25.47;51.02
46379;BME280;32084;42.254;22.744;2023-07-29T07:29:39;95081.97;;;25.56;50.67
46379;BME280;32084;42.254;22.744;2023-07-29T07:32:05;95080.00;;;25.78;50.51
46379;BME280;32084;42.254;22.744;2023-07-29T07:34:31;95075.28;;;25.96;49.39
46379;BME280;32084;42.254;22.744;2023-07-29T07:36:59;95078.44;;;25.87;49.51
46379;BME280;32084;42.254;22.744;2023-07-29T07:39:25;95071.97;;;25.94;50.30
46379;BME280;32084;42.254;22.744;2023-07-29T07:41:50;95086.81;;;25.98;49.61
46379;BME280;32084;42.254;22.744;2023-07-29T07:44:16;95082.50;;;26.07;49.02
46379;BME280;32084;42.254;22.744;2023-07-29T07:46:43;95080.41;;;26.19;49.58
46379;BME280;32084;42.254;22.744;2023-07-29T07:49:10;95072.13;;;26.46;47.19
46379;BME280;32084;42.254;22.744;2023-07-29T07:51:36;95081.34;;;26.67;49.09
46379;BME280;32084;42.254;22.744;2023-07-29T07:54:02;95078.63;;;26.73;47.49
46379;BME280;32084;42.254;22.744;2023-07-29T07:56:28;95082.06;;;26.90;48.80
46379;BME280;32084;42.254;22.744;2023-07-29T07:58:54;95081.75;;;26.92;47.03
46379;BME280;32084;42.254;22.744;2023-07-29T08:01:20;95080.91;;;26.86;46.14
46379;BME280;32084;42.254;22.744;2023-07-29T08:03:45;95083.66;;;26.86;46.09
46379;BME280;32084;42.254;22.744;2023-07-29T08:06:11;95081.53;;;26.98;47.43
46379;BME280;32084;42.254;22.744;2023-07-29T08:08:37;95077.69;;;26.99;46.96
46379;BME280;32084;42.254;22.744;2023-07-29T08:11:03;95074.75;;;27.11;44.50
46379;BME280;32084;42.254;22.744;2023-07-29T08:13:29;95079.00;;;27.44;46.75
46379;BME280;32084;42.254;22.744;2023-07-29T08:15:55;95076.03;;;27.56;45.21
46379;BME280;32084;42.254;22.744;2023-07-29T08:18:21;95071.94;;;27.69;45.01
46379;BME280;32084;42.254;22.744;2023-07-29T08:23:20;95077.81;;;28.09;44.68
46379;BME280;32084;42.254;22.744;2023-07-29T08:25:50;95064.91;;;28.14;45.39
46379;BME280;32084;42.254;22.744;2023-07-29T08:28:16;95060.50;;;28.18;44.13
46379;BME280;32084;42.254;22.744;2023-07-29T08:30:43;95062.44;;;28.18;44.28
46379;BME280;32084;42.254;22.744;2023-07-29T08:33:08;95059.97;;;28.32;44.25
46379;BME280;32084;42.254;22.744;2023-07-29T08:35:34;95052.81;;;28.46;44.00
46379;BME280;32084;42.254;22.744;2023-07-29T08:38:01;95052.00;;;28.61;44.13
46379;BME280;32084;42.254;22.744;2023-07-29T08:40:27;95057.19;;;28.78;43.82
46379;BME280;32084;42.254;22.744;2023-07-29T08:42:55;95054.41;;;28.93;42.63
46379;BME280;32084;42.254;22.744;2023-07-29T08:45:22;95054.66;;;29.02;42.92
46379;BME280;32084;42.254;22.744;2023-07-29T08:47:48;95058.75;;;29.10;42.10
46379;BME280;32084;42.254;22.744;2023-07-29T08:50:16;95057.34;;;29.28;40.44
46379;BME280;32084;42.254;22.744;2023-07-29T08:52:42;95051.50;;;29.39;41.06
46379;BME280;32084;42.254;22.744;2023-07-29T08:55:08;95055.94;;;29.30;38.27
46379;BME280;32084;42.254;22.744;2023-07-29T08:57:34;95042.38;;;29.44;41.02
46379;BME280;32084;42.254;22.744;2023-07-29T09:00:01;95046.00;;;29.39;40.26
46379;BME280;32084;42.254;22.744;2023-07-29T09:02:27;95050.50;;;29.15;39.02
46379;BME280;32084;42.254;22.744;2023-07-29T09:04:53;95050.72;;;29.29;37.58
46379;BME280;32084;42.254;22.744;2023-07-29T09:07:19;95050.06;;;29.52;39.14
46379;BME280;32084;42.254;22.744;2023-07-29T09:09:46;95041.97;;;29.76;38.14
46379;BME280;32084;42.254;22.744;2023-07-29T09:12:12;95043.63;;;29.77;37.75
46379;BME280;32084;42.254;22.744;2023-07-29T09:14:38;95030.63;;;29.83;37.87
46379;BME280;32084;42.254;22.744;2023-07-29T09:17:06;95031.97;;;29.86;38.52
46379;BME280;32084;42.254;22.744;2023-07-29T09:19:33;95026.31;;;30.06;38.88
46379;BME280;32084;42.254;22.744;2023-07-29T09:21:59;95035.06;;;30.19;37.05
46379;BME280;32084;42.254;22.744;2023-07-29T09:24:25;95038.69;;;30.09;35.73
46379;BME280;32084;42.254;22.744;2023-07-29T09:26:55;95036.53;;;30.06;35.20
46379;BME280;32084;42.254;22.744;2023-07-29T09:29:22;95037.31;;;30.11;35.92
46379;BME280;32084;42.254;22.744;2023-07-29T09:31:48;95026.97;;;30.27;36.53
46379;BME280;32084;42.254;22.744;2023-07-29T09:34:14;95031.47;;;30.18;35.20
46379;BME280;32084;42.254;22.744;2023-07-29T09:36:41;95023.97;;;30.24;37.10
46379;BME280;32084;42.254;22.744;2023-07-29T09:39:10;95016.19;;;30.36;37.47
46379;BME280;32084;42.254;22.744;2023-07-29T09:41:36;95008.34;;;30.48;36.83
46379;BME280;32084;42.254;22.744;2023-07-29T09:44:03;95009.22;;;30.44;37.91
46379;BME280;32084;42.254;22.744;2023-07-29T09:46:33;95023.13;;;30.28;34.97
46379;BME280;32084;42.254;22.744;2023-07-29T09:49:00;95015.13;;;30.32;35.79
46379;BME280;32084;42.254;22.744;2023-07-29T09:51:27;95014.00;;;30.33;35.92
46379;BME280;32084;42.254;22.744;2023-07-29T09:53:53;95014.53;;;30.35;35.55
46379;BME280;32084;42.254;22.744;2023-07-29T09:56:25;95012.41;;;30.56;35.14
46379;BME280;32084;42.254;22.744;2023-07-29T09:58:52;95008.34;;;30.78;34.92
46379;BME280;32084;42.254;22.744;2023-07-29T10:01:18;95009.09;;;30.83;35.65
46379;BME280;32084;42.254;22.744;2023-07-29T10:03:44;95007.09;;;30.65;35.71
46379;BME280;32084;42.254;22.744;2023-07-29T10:06:11;95003.97;;;30.71;35.09
46379;BME280;32084;42.254;22.744;2023-07-29T10:08:37;94997.00;;;30.79;35.89
46379;BME280;32084;42.254;22.744;2023-07-29T10:11:05;95001.41;;;30.80;34.26
46379;BME280;32084;42.254;22.744;2023-07-29T10:13:32;94990.25;;;30.90;35.81
46379;BME280;32084;42.254;22.744;2023-07-29T10:15:59;94991.78;;;31.02;36.15
46379;BME280;32084;42.254;22.744;2023-07-29T10:18:28;94992.91;;;31.01;34.07
46379;BME280;32084;42.254;22.744;2023-07-29T10:20:56;94995.84;;;30.85;32.12
46379;BME280;32084;42.254;22.744;2023-07-29T10:23:22;94980.38;;;30.84;35.98
46379;BME280;32084;42.254;22.744;2023-07-29T10:25:50;94983.31;;;30.98;34.92
46379;BME280;32084;42.254;22.744;2023-07-29T10:28:18;94981.88;;;31.01;33.87
46379;BME280;32084;42.254;22.744;2023-07-29T10:30:46;94980.41;;;31.08;34.98
46379;BME280;32084;42.254;22.744;2023-07-29T10:33:13;94976.53;;;31.09;33.36
46379;BME280;32084;42.254;22.744;2023-07-29T10:35:39;94971.22;;;31.13;34.93
46379;BME280;32084;42.254;22.744;2023-07-29T10:38:06;94963.59;;;31.05;33.69
46379;BME280;32084;42.254;22.744;2023-07-29T10:43:37;94965.09;;;30.97;32.17
46379;BME280;32084;42.254;22.744;2023-07-29T10:46:18;94965.09;;;30.97;32.19
46379;BME280;32084;42.254;22.744;2023-07-29T10:53:56;94961.78;;;30.95;32.15
46379;BME280;32084;42.254;22.744;2023-07-29T10:56:28;94954.81;;;31.03;32.29
46379;BME280;32084;42.254;22.744;2023-07-29T10:58:55;94952.50;;;31.10;32.13
46379;BME280;32084;42.254;22.744;2023-07-29T11:01:29;94956.63;;;31.31;30.18
46379;BME280;32084;42.254;22.744;2023-07-29T11:04:21;94959.22;;;31.04;27.74
46379;BME280;32084;42.254;22.744;2023-07-29T11:12:10;94947.06;;;31.24;31.08
46379;BME280;32084;42.254;22.744;2023-07-29T11:14:52;94943.72;;;31.27;29.35
46379;BME280;32084;42.254;22.744;2023-07-29T11:17:18;94938.94;;;31.32;31.11
46379;BME280;32084;42.254;22.744;2023-07-29T11:19:44;94931.31;;;31.43;31.37
46379;BME280;32084;42.254;22.744;2023-07-29T11:22:10;94934.56;;;31.50;31.79
46379;BME280;32084;42.254;22.744;2023-07-29T11:24:37;94939.28;;;31.50;30.49
46379;BME280;32084;42.254;22.744;2023-07-29T11:27:03;94931.72;;;31.56;31.06
46379;BME280;32084;42.254;22.744;2023-07-29T11:29:29;94934.44;;;31.61;30.82
46379;BME280;32084;42.254;22.744;2023-07-29T11:31:55;94935.59;;;31.55;28.93
46379;BME280;32084;42.254;22.744;2023-07-29T11:34:30;94925.16;;;31.51;29.60
46379;BME280;32084;42.254;22.744;2023-07-29T11:36:57;94926.34;;;31.64;30.44
46379;BME280;32084;42.254;22.744;2023-07-29T11:39:23;94923.66;;;31.78;30.17
46379;BME280;32084;42.254;22.744;2023-07-29T11:41:49;94920.59;;;31.80;29.89
46379;BME280;32084;42.254;22.744;2023-07-29T11:44:18;94920.94;;;31.92;29.28
46379;BME280;32084;42.254;22.744;2023-07-29T11:46:44;94924.28;;;31.89;27.92
46379;BME280;32084;42.254;22.744;2023-07-29T11:49:10;94918.38;;;31.63;29.10
46379;BME280;32084;42.254;22.744;2023-07-29T11:51:36;94919.41;;;31.67;28.91
46379;BME280;32084;42.254;22.744;2023-07-29T11:54:02;94906.56;;;31.76;30.03
46379;BME280;32084;42.254;22.744;2023-07-29T11:56:29;94908.56;;;31.70;30.74
46379;BME280;32084;42.254;22.744;2023-07-29T11:58:56;94906.97;;;31.45;30.32
46379;BME280;32084;42.254;22.744;2023-07-29T12:04:44;94884.13;;;31.21;31.60
46379;BME280;32084;42.254;22.744;2023-07-29T12:07:12;94888.31;;;30.99;33.04
46379;BME280;32084;42.254;22.744;2023-07-29T12:09:39;94886.50;;;30.89;32.51
46379;BME280;32084;42.254;22.744;2023-07-29T12:12:05;94884.44;;;31.00;31.84
46379;BME280;32084;42.254;22.744;2023-07-29T12:14:32;94883.03;;;31.22;32.18
46379;BME280;32084;42.254;22.744;2023-07-29T12:17:02;94887.00;;;31.35;29.62
46379;BME280;32084;42.254;22.744;2023-07-29T12:19:32;94897.78;;;31.55;30.49
46379;BME280;32084;42.254;22.744;2023-07-29T12:21:58;94883.47;;;31.67;32.04
46379;BME280;32084;42.254;22.744;2023-07-29T12:24:24;94883.56;;;31.62;31.66
46379;BME280;32084;42.254;22.744;2023-07-29T12:26:50;94892.72;;;31.76;31.36
46379;BME280;32084;42.254;22.744;2023-07-29T12:29:18;94882.97;;;31.65;32.55
46379;BME280;32084;42.254;22.744;2023-07-29T12:31:47;94882.00;;;31.37;32.04
46379;BME280;32084;42.254;22.744;2023-07-29T12:34:21;94883.69;;;30.94;31.99
46379;BME280;32084;42.254;22.744;2023-07-29T12:36:48;94878.69;;;30.72;30.89
46379;BME280;32084;42.254;22.744;2023-07-29T12:39:18;94875.56;;;30.60;32.67
46379;BME280;32084;42.254;22.744;2023-07-29T12:41:44;94871.03;;;30.45;32.55
46379;BME280;32084;42.254;22.744;2023-07-29T12:44:11;94872.13;;;30.44;31.26
46379;BME280;32084;42.254;22.744;2023-07-29T12:46:37;94869.09;;;30.46;31.77
46379;BME280;32084;42.254;22.744;2023-07-29T12:49:03;94864.16;;;30.43;32.15
46379;BME280;32084;42.254;22.744;2023-07-29T12:51:29;94864.16;;;30.43;33.11
46379;BME280;32084;42.254;22.744;2023-07-29T12:53:54;94874.41;;;30.37;32.50
46379;BME280;32084;42.254;22.744;2023-07-29T12:56:20;94873.38;;;30.33;33.19
46379;BME280;32084;42.254;22.744;2023-07-29T12:58:46;94873.31;;;30.38;32.88
46379;BME280;32084;42.254;22.744;2023-07-29T13:01:13;94859.28;;;30.34;35.12
46379;BME280;32084;42.254;22.744;2023-07-29T13:03:43;94864.53;;;30.36;34.65
46379;BME280;32084;42.254;22.744;2023-07-29T13:06:09;94863.47;;;30.32;35.65
46379;BME280;32084;42.254;22.744;2023-07-29T13:08:34;94865.63;;;30.35;35.21
46379;BME280;32084;42.254;22.744;2023-07-29T13:11:00;94865.66;;;30.30;36.58